Time;durP1;ratioP1;P1;durP2;ratioP2;P2;SDS_P1;SDS_P2;PMS_P1;PMS_P2;Temp;Humidity;BMP_temperature;BMP_pressure;BME280_temperature;BME280_humidity;BME280_pressure;Samples;Min_cycle;Max_cycle;Signal;HPM_P1;HPM_P2
2022/06/22 00:01:21;;;;;;;7.40;2.10;;;;;;;11.44;71.74;99465.56;214521;1276;141989;-65
2022/06/22 00:06:35;;;;;;;2.10;2.00;;;;;;;11.36;71.83;99464.65;214381;1276;141274;-63
2022/06/22 00:11:44;;;;;;;1.70;1.60;;;;;;;11.27;71.79;99470.30;215730;1276;140268;-65
2022/06/22 00:16:54;;;;;;;2.10;1.80;;;;;;;11.20;71.94;99478.70;215965;1277;142612;-66
2022/06/22 00:22:00;;;;;;;4.80;1.80;;;;;;;11.18;72.44;99473.96;215819;1276;141213;-66
2022/06/22 00:27:14;;;;;;;2.10;2.00;;;;;;;11.17;72.60;99472.11;215385;1276;141437;-67
2022/06/22 00:32:29;;;;;;;6.70;2.40;;;;;;;11.18;72.52;99463.06;215846;1276;141377;-66
2022/06/22 00:37:37;;;;;;;9.50;4.00;;;;;;;11.19;72.74;99458.35;215851;1276;140564;-66
2022/06/22 00:42:47;;;;;;;4.80;2.70;;;;;;;11.20;72.63;99449.92;215210;1276;141000;-66
2022/06/22 00:48:21;;;;;;;5.90;2.00;;;;;;;11.15;72.87;99449.38;214899;1277;141381;-64
2022/06/22 00:53:30;;;;;;;2.70;2.50;;;;;;;11.05;72.54;99441.33;214018;1276;140107;-66
2022/06/22 00:58:40;;;;;;;5.10;2.80;;;;;;;10.91;72.29;99435.58;213911;1277;141231;-65
2022/06/22 01:04:19;;;;;;;1.80;1.70;;;;;;;10.69;72.12;99441.42;214520;1277;140114;-65
2022/06/22 01:09:53;;;;;;;3.70;1.90;;;;;;;10.48;72.27;99447.15;214085;1277;140535;-65
2022/06/22 01:15:17;;;;;;;2.80;2.40;;;;;;;10.28;72.59;99461.63;213512;1277;141594;-64
2022/06/22 01:20:27;;;;;;;2.10;2.00;;;;;;;10.19;72.69;99473.64;213085;1277;142308;-64
2022/06/22 01:25:49;;;;;;;3.40;2.90;;;;;;;10.13;73.15;99480.55;213954;1277;142264;-64
2022/06/22 01:31:02;;;;;;;11.20;2.50;;;;;;;10.14;73.33;99476.69;213116;1277;140900;-65
2022/06/22 01:36:11;;;;;;;1.80;1.70;;;;;;;10.09;73.28;99483.93;213535;1276;140183;-64
2022/06/22 01:41:40;;;;;;;2.30;1.80;;;;;;;9.93;73.05;99482.55;214352;1277;140491;-65
2022/06/22 01:46:50;;;;;;;3.80;1.90;;;;;;;9.80;73.17;99484.45;213813;1277;141315;-64
2022/06/22 01:52:08;;;;;;;4.90;2.30;;;;;;;9.71;73.30;99489.47;213534;1276;140328;-64
2022/06/22 01:57:40;;;;;;;;;;;;;;;9.64;73.38;99489.48;213977;1277;139384;-65
2022/06/22 02:03:00;;;;;;;4.10;2.20;;;;;;;9.52;73.67;99506.29;215793;1276;127229;-65
2022/06/22 02:08:10;;;;;;;2.50;2.30;;;;;;;9.49;73.89;99516.51;214598;1276;142785;-65
2022/06/22 02:13:37;;;;;;;4.70;3.70;;;;;;;9.49;73.97;99519.42;215872;1276;141648;-65
2022/06/22 02:19:12;;;;;;;2.40;1.70;;;;;;;9.48;73.76;99521.70;215607;1277;540677;-65
2022/06/22 02:24:19;;;;;;;2.60;2.30;;;;;;;9.49;74.49;99518.31;216014;1276;140583;-66
2022/06/22 02:29:29;;;;;;;3.40;2.40;;;;;;;9.57;74.78;99513.18;215813;1277;140178;-65
2022/06/22 02:34:35;;;;;;;2.80;2.30;;;;;;;9.58;74.46;99503.46;215424;1277;140536;-65
2022/06/22 02:39:48;;;;;;;3.20;2.80;;;;;;;9.45;73.93;99502.48;215097;1276;142766;-65
2022/06/22 02:44:52;;;;;;;2.50;2.20;;;;;;;9.35;74.13;99500.63;214612;1276;140551;-66
2022/06/22 02:50:18;;;;;;;3.00;2.70;;;;;;;9.35;74.54;99509.98;214396;1277;140978;-64
2022/06/22 02:55:27;;;;;;;2.00;1.90;;;;;;;9.28;74.48;99509.59;213939;1277;140433;-66
2022/06/22 03:00:38;;;;;;;4.20;2.40;;;;;;;9.27;74.74;99523.19;213467;1277;141130;-65
2022/06/22 03:05:46;;;;;;;4.40;2.60;;;;;;;9.29;74.73;99528.77;213734;1277;139875;-65
2022/06/22 03:10:58;;;;;;;6.60;3.00;;;;;;;9.40;75.31;99529.10;213448;1277;140643;-65
2022/06/22 03:16:03;;;;;;;3.10;2.80;;;;;;;9.52;75.29;99535.77;213189;1277;139813;-65
2022/06/22 03:21:14;;;;;;;3.00;2.50;;;;;;;9.63;75.78;99528.32;213162;1277;139586;-63
2022/06/22 03:26:20;;;;;;;3.20;2.60;;;;;;;9.78;75.78;99520.60;213368;1277;141078;-62
2022/06/22 03:31:31;;;;;;;2.80;2.50;;;;;;;9.81;75.57;99521.87;214627;1277;140773;-64
2022/06/22 03:36:37;;;;;;;3.60;2.80;;;;;;;9.86;76.17;99514.52;214083;1277;140158;-65
2022/06/22 03:41:57;;;;;;;5.60;2.60;;;;;;;10.11;76.49;99506.09;213551;1275;140660;-64
2022/06/22 03:47:09;;;;;;;3.60;2.70;;;;;;;10.57;76.17;99515.98;213922;1276;143005;-64
2022/06/22 03:52:22;;;;;;;2.90;2.70;;;;;;;11.08;75.68;99534.47;213691;1276;152200;-65
2022/06/22 03:57:32;;;;;;;4.10;3.60;;;;;;;11.36;75.58;99532.59;215224;1277;141103;-66
2022/06/22 04:02:38;;;;;;;5.00;3.00;;;;;;;11.79;75.51;99522.86;214234;1276;141119;-66
2022/06/22 04:07:42;;;;;;;7.90;3.30;;;;;;;12.06;75.38;99526.80;213796;1276;142429;-65
2022/06/22 04:12:50;;;;;;;4.30;4.00;;;;;;;12.32;74.95;99523.70;214507;1277;141773;-65
2022/06/22 04:17:59;;;;;;;4.20;3.30;;;;;;;12.49;75.06;99519.23;215870;1275;141188;-66
2022/06/22 04:23:04;;;;;;;5.30;3.10;;;;;;;12.82;74.68;99523.19;215005;1276;141660;-65
2022/06/22 04:28:12;;;;;;;4.00;3.70;;;;;;;13.17;74.25;99520.48;214852;1277;141930;-66
2022/06/22 04:33:32;;;;;;;3.30;3.00;;;;;;;13.43;74.44;99535.89;214538;1276;142033;-65
2022/06/22 04:39:02;;;;;;;5.60;3.40;;;;;;;15.91;71.67;99533.89;214318;1276;142548;-67
2022/06/22 04:44:20;;;;;;;3.30;3.10;;;;;;;19.95;66.96;99539.49;213407;1276;141735;-65
2022/06/22 04:49:31;;;;;;;4.60;3.60;;;;;;;22.55;63.23;99529.95;214812;1276;141177;-66
2022/06/22 04:54:40;;;;;;;4.70;3.40;;;;;;;24.70;59.47;99535.02;214193;1277;140428;-64
2022/06/22 04:59:46;;;;;;;10.90;3.70;;;;;;;23.39;58.57;99543.59;214173;1276;141984;-64
2022/06/22 05:05:01;;;;;;;6.60;4.30;;;;;;;22.50;57.65;99557.43;213871;1276;140124;-63
2022/06/22 05:10:28;;;;;;;3.70;3.30;;;;;;;23.36;55.88;99554.48;214693;1277;139796;-64
2022/06/22 05:15:36;;;;;;;2.70;2.50;;;;;;;27.56;51.65;99548.23;213586;1277;140558;-64
2022/06/22 05:20:53;;;;;;;3.40;3.00;;;;;;;31.33;48.26;99544.72;214330;1277;139630;-65
2022/06/22 05:26:07;;;;;;;2.30;1.80;;;;;;;34.34;44.25;99555.66;214495;1276;140133;-66
2022/06/22 05:31:17;;;;;;;1.90;1.70;;;;;;;36.27;40.54;99564.95;213138;1277;141339;-64
2022/06/22 05:36:26;;;;;;;1.30;1.10;;;;;;;38.05;37.91;99569.88;214391;1276;140362;-65
2022/06/22 05:41:39;;;;;;;4.10;2.20;;;;;;;39.37;34.85;99570.13;213302;1276;142008;-65
2022/06/22 05:46:56;;;;;;;5.50;2.30;;;;;;;40.33;32.94;99565.42;213975;1275;140754;-64
2022/06/22 05:52:30;;;;;;;2.10;1.80;;;;;;;41.36;31.08;99570.43;213582;1276;161528;-64
2022/06/22 05:58:00;;;;;;;1.70;1.30;;;;;;;42.33;29.94;99578.33;213964;1277;140898;-65
2022/06/22 06:03:23;;;;;;;3.30;1.70;;;;;;;43.17;28.08;99568.18;214798;1276;140419;-65
2022/06/22 06:08:43;;;;;;;1.90;1.70;;;;;;;43.45;26.85;99560.83;215521;1276;142525;-65
2022/06/22 06:13:59;;;;;;;4.30;1.40;;;;;;;43.67;26.16;99564.27;215788;1276;141557;-66
2022/06/22 06:19:06;;;;;;;1.70;1.30;;;;;;;43.69;25.07;99560.74;214379;1276;141192;-65
2022/06/22 06:24:20;;;;;;;2.10;1.20;;;;;;;43.60;24.63;99570.88;214833;1276;141913;-65
2022/06/22 06:30:05;;;;;;;2.00;1.80;;;;;;;43.35;24.09;99570.92;215729;1276;140990;-65
2022/06/22 06:35:35;;;;;;;2.30;1.60;;;;;;;42.85;23.49;99567.16;214426;1276;141301;-65
2022/06/22 06:41:47;;;;;;;1.60;1.20;;;;;;;42.41;23.37;99577.58;214424;1276;141396;-65
2022/06/22 06:46:44;;;;;;;2.20;1.20;;;;;;;42.18;23.39;99572.13;213058;1276;139470;-65
2022/06/22 06:52:33;;;;;;;1.00;0.90;;;;;;;42.26;23.54;99570.23;213735;1276;139716;-66
2022/06/22 06:57:56;;;;;;;2.40;0.90;;;;;;;42.31;22.89;99563.13;212846;1276;141814;-65
2022/06/22 07:03:11;;;;;;;1.90;1.40;;;;;;;41.94;22.64;99560.80;213625;1278;140706;-67
2022/06/22 07:08:25;;;;;;;3.80;1.60;;;;;;;41.45;22.16;99550.88;213946;1276;139676;-65
2022/06/22 07:14:28;;;;;;;1.20;1.20;;;;;;;41.16;22.78;99540.20;215704;1276;141367;-67
2022/06/22 07:19:53;;;;;;;6.10;1.60;;;;;;;40.97;22.68;99540.21;213292;1276;139433;-68
2022/06/22 07:25:20;;;;;;;2.10;1.10;;;;;;;40.38;22.93;99541.08;213132;1276;139984;-69
2022/06/22 07:30:36;;;;;;;1.80;1.00;;;;;;;39.06;23.40;99542.27;213134;1276;139572;-66
2022/06/22 07:36:04;;;;;;;1.30;1.00;;;;;;;37.97;24.37;99543.70;213312;1276;140156;-68
2022/06/22 07:41:19;;;;;;;3.50;0.90;;;;;;;36.67;24.74;99539.70;214123;1276;140615;-66
2022/06/22 07:46:28;;;;;;;1.90;1.00;;;;;;;35.67;25.95;99537.21;214392;1276;139809;-66
2022/06/22 07:51:35;;;;;;;7.30;1.90;;;;;;;34.88;26.62;99544.95;214910;1276;140643;-67
2022/06/22 07:57:08;;;;;;;2.40;1.00;;;;;;;34.03;27.07;99543.05;215833;1276;140682;-70
2022/06/22 08:02:25;;;;;;;3.00;1.20;;;;;;;33.35;27.30;99538.02;215896;1276;139861;-67
2022/06/22 08:07:43;;;;;;;1.10;1.10;;;;;;;32.62;28.37;99537.38;214748;1276;142161;-68
2022/06/22 08:13:11;;;;;;;5.40;1.20;;;;;;;31.86;28.56;99535.54;215646;1276;139851;-69
2022/06/22 08:18:16;;;;;;;1.00;0.80;;;;;;;31.28;29.68;99539.64;215187;1276;140170;-68
2022/06/22 08:23:24;;;;;;;7.30;1.40;;;;;;;30.98;29.41;99539.86;215834;1276;140234;-68
2022/06/22 08:28:42;;;;;;;1.70;0.90;;;;;;;30.38;29.40;99537.05;214846;1274;140813;-68
2022/06/22 08:33:59;;;;;;;2.00;0.90;;;;;;;29.98;29.98;99537.61;214096;1276;141471;-69
2022/06/22 08:39:08;;;;;;;6.70;1.90;;;;;;;29.71;30.44;99543.92;214457;1276;140969;-66
2022/06/22 08:44:45;;;;;;;6.70;1.70;;;;;;;29.43;30.89;99539.19;213472;1276;140263;-66
2022/06/22 08:50:35;;;;;;;7.40;2.20;;;;;;;29.04;31.38;99542.06;212396;1276;140158;-68
2022/06/22 08:56:08;;;;;;;3.20;1.30;;;;;;;28.89;31.98;99543.33;213852;1276;139746;-67
2022/06/22 09:01:15;;;;;;;3.20;1.60;;;;;;;28.85;32.84;99544.66;213426;1276;140973;-65
2022/06/22 09:06:40;;;;;;;2.70;1.40;;;;;;;28.77;32.23;99539.22;213970;1276;140564;-65
2022/06/22 09:12:20;;;;;;;1.20;1.10;;;;;;;28.48;32.31;99541.35;214718;1276;140239;-68
2022/06/22 09:17:37;;;;;;;2.20;1.40;;;;;;;28.34;33.13;99547.63;213233;1274;140388;-66
2022/06/22 09:22:43;;;;;;;2.30;2.00;;;;;;;28.33;32.84;99538.52;213915;1276;140733;-66
2022/06/22 09:27:50;;;;;;;6.50;1.70;;;;;;;28.15;32.97;99535.81;214152;1275;141275;-69
2022/06/22 09:33:15;;;;;;;2.30;1.80;;;;;;;28.05;33.42;99539.10;213638;1276;141212;-67
2022/06/22 09:38:31;;;;;;;2.40;1.50;;;;;;;27.91;34.17;99542.52;213077;1276;141282;-66
2022/06/22 09:43:45;;;;;;;2.30;1.30;;;;;;;27.80;34.12;99533.96;213671;1276;141916;-65
2022/06/22 09:49:07;;;;;;;2.10;1.50;;;;;;;27.72;34.66;99530.71;213415;1276;140359;-65
2022/06/22 09:59:54;;;;;;;1.90;1.50;;;;;;;27.29;34.86;99529.84;214344;1276;140154;-66
2022/06/22 10:05:21;;;;;;;1.20;1.20;;;;;;;27.08;35.22;99528.02;215518;1276;141486;-65
2022/06/22 10:10:35;;;;;;;20.70;3.70;;;;;;;26.81;35.07;99527.31;215794;1276;139276;-65
2022/06/22 10:16:00;;;;;;;2.60;1.30;;;;;;;26.69;35.44;99524.30;215595;1276;140131;-65
2022/06/22 10:21:10;;;;;;;1.80;1.50;;;;;;;26.74;35.89;99523.36;215399;1276;141248;-68
2022/06/22 10:26:51;;;;;;;6.60;2.10;;;;;;;26.68;35.80;99524.98;215588;1276;140914;-67
2022/06/22 10:32:40;;;;;;;2.20;1.50;;;;;;;26.82;36.11;99527.36;214980;1276;140140;-67
2022/06/22 10:38:05;;;;;;;2.30;1.20;;;;;;;27.07;35.88;99525.34;213459;1279;139759;-65
2022/06/22 10:49:05;;;;;;;1.80;1.60;;;;;;;27.05;35.36;99525.98;213621;1276;141614;-66
2022/06/22 10:54:40;;;;;;;5.60;1.70;;;;;;;26.90;35.20;99515.15;213894;1277;141426;-66
2022/06/22 11:00:05;;;;;;;1.40;1.30;;;;;;;26.93;35.70;99516.39;214239;1276;140945;-66
2022/06/22 11:05:51;;;;;;;5.10;1.60;;;;;;;27.06;35.62;99506.86;214318;1276;141616;-65
2022/06/22 11:11:03;;;;;;;4.50;1.80;;;;;;;27.14;35.28;99508.40;213454;1277;141257;-65
2022/06/22 11:16:35;;;;;;;2.20;1.20;;;;;;;27.12;35.08;99512.42;214279;1276;140994;-66
2022/06/22 11:21:52;;;;;;;2.50;1.50;;;;;;;27.23;35.33;99518.24;213678;1276;141861;-65
2022/06/22 11:33:09;;;;;;;4.50;1.60;;;;;;;26.94;35.07;99509.89;214318;1276;140806;-66
2022/06/22 11:38:44;;;;;;;2.00;1.40;;;;;;;26.85;35.22;99512.20;213756;1276;140215;-65
2022/06/22 11:44:25;;;;;;;2.70;1.60;;;;;;;26.58;35.10;99509.56;214540;1277;139987;-66
2022/06/22 11:49:36;;;;;;;1.50;1.40;;;;;;;26.29;35.64;99519.38;213058;1276;140611;-65
2022/06/22 11:54:54;;;;;;;6.10;2.00;;;;;;;26.21;35.52;99522.94;214875;1276;141813;-65
2022/06/22 12:00:33;;;;;;;2.30;1.70;;;;;;;26.06;36.14;99517.78;215363;1276;142524;-66
2022/06/22 12:06:02;;;;;;;4.70;1.70;;;;;;;26.34;36.55;99514.95;215530;1276;139568;-65
2022/06/22 12:11:26;;;;;;;5.60;1.70;;;;;;;26.39;36.65;99513.20;215679;1276;159391;-65
2022/06/22 12:17:17;;;;;;;2.50;1.70;;;;;;;26.38;36.60;99510.61;215782;1276;139476;-65
2022/06/22 12:22:48;;;;;;;10.80;1.50;;;;;;;25.94;36.40;99499.56;214997;1276;141347;-67
2022/06/22 12:28:26;;;;;;;1.30;1.20;;;;;;;25.71;36.37;99502.02;214585;1276;140303;-67
2022/06/22 12:33:44;;;;;;;5.00;1.80;;;;;;;25.80;36.65;99512.54;215295;1275;139477;-67
2022/06/22 12:38:51;;;;;;;2.00;1.90;;;;;;;26.14;37.07;99509.85;215243;1276;140348;-66
2022/06/22 12:44:26;;;;;;;2.30;2.00;;;;;;;26.54;36.85;99510.21;214330;1276;141637;-65
2022/06/22 12:49:50;;;;;;;1.20;1.10;;;;;;;26.52;36.37;99497.13;214279;1276;140624;-66
2022/06/22 12:55:12;;;;;;;5.50;1.10;;;;;;;26.45;35.95;99489.29;214730;1276;140293;-66
2022/06/22 13:00:20;;;;;;;2.30;1.90;;;;;;;26.32;36.17;99484.96;213893;1276;141850;-68
2022/06/22 13:05:34;;;;;;;1.50;1.40;;;;;;;25.82;35.91;99483.25;214493;1276;140376;-66
2022/06/22 13:10:47;;;;;;;7.10;2.20;;;;;;;25.41;36.53;99484.55;213634;1276;141361;-65
2022/06/22 13:16:00;;;;;;;3.60;2.70;;;;;;;25.70;36.93;99477.02;213293;1276;141316;-66
2022/06/22 13:21:25;;;;;;;1.60;1.50;;;;;;;26.02;37.26;99476.15;214009;1276;140795;-65
2022/06/22 13:26:56;;;;;;;1.90;1.70;;;;;;;26.18;37.36;99476.25;213625;1276;140767;-64
2022/06/22 13:32:06;;;;;;;3.80;1.70;;;;;;;26.29;37.01;99475.73;213344;1276;142620;-66
2022/06/22 13:37:41;;;;;;;3.50;1.70;;;;;;;26.31;36.83;99478.23;213412;1276;141198;-66
2022/06/22 13:42:55;;;;;;;3.70;1.60;;;;;;;25.86;36.24;99475.82;214841;1277;140439;-65
2022/06/22 13:48:40;;;;;;;3.00;1.70;;;;;;;25.86;36.82;99479.10;214086;1276;139815;-65
2022/06/22 13:53:53;;;;;;;4.00;1.60;;;;;;;25.95;36.76;99483.59;214010;1277;140001;-66
2022/06/22 13:59:08;;;;;;;1.60;1.30;;;;;;;26.14;36.54;99475.92;214655;1276;140003;-65
2022/06/22 14:04:23;;;;;;;2.50;1.40;;;;;;;26.09;36.19;99475.60;214679;1276;141566;-66
2022/06/22 14:09:48;;;;;;;3.70;1.70;;;;;;;26.02;36.58;99474.04;215278;1276;140032;-68
2022/06/22 14:15:13;;;;;;;1.50;1.40;;;;;;;25.89;36.70;99471.02;215098;1276;646774;-66
2022/06/22 14:20:34;;;;;;;2.70;1.50;;;;;;;25.80;36.80;99465.96;215151;1276;140718;-68
2022/06/22 14:26:07;;;;;;;1.70;1.60;;;;;;;25.81;36.83;99464.98;215272;1276;141112;-65
2022/06/22 14:31:28;;;;;;;1.30;1.30;;;;;;;25.67;36.80;99458.04;215752;1276;140190;-65
2022/06/22 14:36:40;;;;;;;1.30;1.20;;;;;;;25.32;36.83;99464.06;215667;1276;141922;-65
2022/06/22 14:42:11;;;;;;;3.30;1.50;;;;;;;25.23;37.50;99467.11;214373;1276;141062;-65
2022/06/22 14:47:34;;;;;;;1.50;1.10;;;;;;;24.98;37.29;99470.33;214406;1276;141213;-65
2022/06/22 14:52:59;;;;;;;1.80;1.30;;;;;;;24.80;37.57;99470.52;214053;1276;140348;-65
2022/06/22 14:58:25;;;;;;;1.10;1.00;;;;;;;24.72;37.94;99466.42;213750;1276;141424;-66
2022/06/22 15:03:41;;;;;;;5.00;1.90;;;;;;;24.95;38.05;99457.03;213050;1274;140813;-66
2022/06/22 15:08:53;;;;;;;2.50;1.30;;;;;;;25.14;38.05;99451.09;214908;1276;139969;-65
2022/06/22 15:14:03;;;;;;;1.00;1.00;;;;;;;25.17;37.77;99452.40;213289;1276;140226;-65
2022/06/22 15:19:28;;;;;;;3.60;1.50;;;;;;;25.11;37.79;99450.84;214456;1276;140442;-66
2022/06/22 15:24:45;;;;;;;4.30;1.40;;;;;;;25.13;37.81;99443.48;213945;1276;141391;-64
2022/06/22 15:29:55;;;;;;;1.20;1.20;;;;;;;25.23;37.54;99433.90;213418;1276;140521;-66
2022/06/22 15:35:18;;;;;;;1.70;1.40;;;;;;;25.18;37.61;99434.68;213291;1276;141288;-66
2022/06/22 15:40:28;;;;;;;2.60;1.30;;;;;;;25.12;37.74;99439.86;214263;1277;140347;-66
2022/06/22 15:45:47;;;;;;;2.30;1.30;;;;;;;25.11;37.64;99439.44;214487;1276;140624;-66
2022/06/22 15:51:15;;;;;;;4.80;1.60;;;;;;;25.08;37.79;99443.85;213502;1276;139729;-65
2022/06/22 15:56:43;;;;;;;2.80;1.60;;;;;;;24.98;37.83;99443.45;214421;1276;139876;-65
2022/06/22 16:02:03;;;;;;;3.20;1.60;;;;;;;24.88;38.31;99443.74;214093;1276;140660;-64
2022/06/22 16:07:20;;;;;;;2.90;1.60;;;;;;;24.84;38.54;99440.02;215399;1276;230455;-66
2022/06/22 16:18:23;;;;;;;4.20;1.50;;;;;;;24.72;38.46;99436.90;215928;1277;140468;-66
2022/06/22 16:23:59;;;;;;;3.10;1.60;;;;;;;24.66;38.62;99442.66;215726;1276;140547;-66
2022/06/22 16:29:14;;;;;;;3.40;1.90;;;;;;;24.56;38.24;99430.70;214173;1277;139740;-65
2022/06/22 16:34:37;;;;;;;3.60;1.40;;;;;;;24.45;38.47;99427.20;214942;1276;140020;-65
2022/06/22 16:39:47;;;;;;;2.30;1.80;;;;;;;24.39;38.62;99428.41;215565;1276;140276;-65
2022/06/22 16:45:09;;;;;;;2.70;1.50;;;;;;;24.32;38.90;99426.58;214278;1277;140136;-65
2022/06/22 16:50:19;;;;;;;1.90;1.60;;;;;;;24.25;39.43;99422.26;215163;1276;140504;-66
2022/06/22 16:55:34;;;;;;;4.30;1.80;;;;;;;24.07;39.62;99422.58;213529;1276;140322;-65
2022/06/22 17:01:00;;;;;;;5.40;2.10;;;;;;;23.93;39.31;99421.02;213626;1276;140328;-65
2022/06/22 17:06:12;;;;;;;2.00;1.40;;;;;;;23.77;39.66;99423.14;214928;1276;141445;-65
2022/06/22 17:11:21;;;;;;;3.50;1.50;;;;;;;23.60;39.84;99420.54;213398;1277;141992;-65
2022/06/22 17:16:50;;;;;;;4.60;1.60;;;;;;;23.46;40.39;99425.61;213034;1277;140759;-67
2022/06/22 17:22:24;;;;;;;5.60;1.70;;;;;;;23.30;40.46;99430.38;213597;1276;140408;-66
2022/06/22 17:27:46;;;;;;;2.60;1.50;;;;;;;23.16;40.73;99426.18;213192;1276;139783;-66
2022/06/22 17:33:28;;;;;;;2.30;1.60;;;;;;;23.05;40.63;99428.27;212789;1276;140642;-66
2022/06/22 17:39:07;;;;;;;2.80;2.20;;;;;;;22.88;41.03;99427.80;213471;1277;140961;-65
2022/06/22 17:44:20;;;;;;;1.80;1.70;;;;;;;22.74;41.40;99429.83;214250;1276;141715;-66
2022/06/22 17:49:31;;;;;;;3.30;1.90;;;;;;;22.59;41.39;99431.18;214676;1277;140816;-65
2022/06/22 17:54:48;;;;;;;3.70;1.90;;;;;;;22.42;42.51;99434.70;214522;1277;141214;-66
2022/06/22 18:00:18;;;;;;;8.70;1.90;;;;;;;22.20;43.83;99439.66;213366;1276;141025;-65
2022/06/22 18:05:47;;;;;;;1.70;1.60;;;;;;;21.90;44.82;99445.79;214705;1276;142168;-65
2022/06/22 18:11:16;;;;;;;2.10;1.80;;;;;;;21.65;45.69;99443.36;212967;1276;144834;-66
2022/06/22 18:16:28;;;;;;;6.20;2.10;;;;;;;21.39;46.24;99448.15;214663;1277;140173;-66
2022/06/22 18:21:39;;;;;;;1.90;1.80;;;;;;;21.15;46.83;99451.81;214537;1277;140686;-66
2022/06/22 18:26:54;;;;;;;1.80;1.50;;;;;;;20.93;47.50;99455.64;215747;1277;140216;-66
2022/06/22 18:32:11;;;;;;;3.20;1.80;;;;;;;20.70;47.92;99458.30;215092;1275;140696;-66
2022/06/22 18:37:49;;;;;;;2.00;1.80;;;;;;;20.51;48.93;99468.89;215690;1277;225861;-66
2022/06/22 18:43:33;;;;;;;10.10;1.90;;;;;;;20.32;49.89;99473.70;214959;1277;142602;-66
2022/06/22 18:49:00;;;;;;;3.00;2.10;;;;;;;20.13;50.93;99473.02;214399;1276;140206;-66
2022/06/22 18:54:07;;;;;;;3.50;1.90;;;;;;;19.97;51.65;99478.45;214618;1276;140621;-66
2022/06/22 18:59:28;;;;;;;2.80;2.50;;;;;;;19.78;52.43;99483.61;214433;1277;139913;-67
2022/06/22 19:04:36;;;;;;;2.70;2.50;;;;;;;19.61;53.33;99490.60;213885;1277;140387;-65
2022/06/22 19:10:07;;;;;;;3.20;3.00;;;;;;;19.43;54.09;99493.63;213983;1277;141812;-65
2022/06/22 19:15:39;;;;;;;2.70;2.60;;;;;;;19.23;55.15;99501.23;214749;1277;162744;-66
2022/06/22 19:20:54;;;;;;;3.80;2.70;;;;;;;18.98;55.58;99496.58;213545;1276;141382;-66
2022/06/22 19:26:19;;;;;;;2.60;2.40;;;;;;;18.73;56.06;99498.02;213610;1277;142123;-66
2022/06/22 19:31:52;;;;;;;6.00;2.20;;;;;;;18.46;56.38;99502.75;214123;1277;140808;-66
2022/06/22 19:37:23;;;;;;;3.20;2.90;;;;;;;18.16;56.90;99504.03;212972;1277;140638;-66
2022/06/22 19:42:59;;;;;;;2.80;2.60;;;;;;;17.91;57.42;99501.77;213800;1277;140859;-65
2022/06/22 19:48:16;;;;;;;2.80;2.60;;;;;;;17.68;57.61;99503.11;214417;1277;142309;-65
2022/06/22 19:53:52;;;;;;;2.80;2.60;;;;;;;17.49;58.22;99509.27;214414;1276;141629;-66
2022/06/22 19:58:56;;;;;;;2.70;2.50;;;;;;;17.27;58.55;99511.55;212650;1276;141164;-66
2022/06/22 20:04:12;;;;;;;2.70;2.50;;;;;;;17.02;59.22;99518.66;213169;1276;140693;-65
2022/06/22 20:09:34;;;;;;;3.90;3.50;;;;;;;16.85;59.72;99517.73;214819;1276;141390;-65
2022/06/22 20:15:10;;;;;;;3.10;2.70;;;;;;;16.72;60.04;99521.38;215160;1276;141589;-66
2022/06/22 20:20:15;;;;;;;4.40;2.70;;;;;;;16.64;60.17;99530.20;215696;1276;142682;-65
2022/06/22 20:25:29;;;;;;;2.60;2.40;;;;;;;16.49;60.41;99534.14;215562;1277;141469;-66
2022/06/22 20:30:40;;;;;;;3.60;3.30;;;;;;;16.26;60.59;99530.98;215607;1276;141366;-67
2022/06/22 20:36:09;;;;;;;4.80;2.90;;;;;;;16.06;60.83;99536.45;215823;1276;141043;-66
2022/06/22 20:41:53;;;;;;;3.20;3.00;;;;;;;15.76;61.20;99539.63;215551;1276;139776;-66
2022/06/22 20:47:14;;;;;;;3.90;3.60;;;;;;;15.55;62.00;99541.76;214696;1276;141202;-66
2022/06/22 20:52:20;;;;;;;7.60;3.80;;;;;;;15.43;62.22;99544.13;214407;1276;141276;-65
2022/06/22 20:57:47;;;;;;;4.20;3.60;;;;;;;15.32;62.62;99545.65;213663;1276;139736;-65
2022/06/22 21:02:55;;;;;;;3.10;2.80;;;;;;;15.07;63.01;99552.52;213881;1276;141492;-64
2022/06/22 21:08:10;;;;;;;3.20;3.00;;;;;;;14.90;63.47;99553.23;214466;1277;141151;-66
2022/06/22 21:13:42;;;;;;;4.10;3.40;;;;;;;14.89;64.18;99558.70;213415;1276;141642;-67
2022/06/22 21:18:51;;;;;;;3.60;3.40;;;;;;;14.93;64.25;99562.63;212958;1276;141325;-65
2022/06/22 21:24:01;;;;;;;4.80;4.20;;;;;;;14.90;64.42;99563.37;213192;1277;151897;-65
2022/06/22 21:29:38;;;;;;;7.40;4.60;;;;;;;14.85;64.71;99566.37;213427;1276;140366;-65
2022/06/22 21:34:59;;;;;;;7.10;4.20;;;;;;;14.73;64.90;99565.16;213850;1277;139963;-65
2022/06/22 21:40:15;;;;;;;6.00;4.80;;;;;;;14.56;65.07;99569.05;214647;1276;143116;-66
2022/06/22 21:45:48;;;;;;;7.30;4.50;;;;;;;14.48;65.37;99570.80;213543;1276;141460;-65
2022/06/22 21:51:25;;;;;;;5.00;4.40;;;;;;;14.43;65.41;99568.84;214348;1276;141474;-67
2022/06/22 21:56:54;;;;;;;5.40;4.80;;;;;;;14.24;65.55;99567.11;214049;1276;140534;-66
2022/06/22 22:02:20;;;;;;;7.10;5.00;;;;;;;14.07;65.88;99575.06;214688;1275;140526;-65
2022/06/22 22:07:48;;;;;;;5.00;4.50;;;;;;;13.88;66.33;99579.85;214009;1276;142070;-65
2022/06/22 22:12:55;;;;;;;6.90;5.40;;;;;;;13.77;66.67;99574.11;214733;1276;142011;-65
2022/06/22 22:18:04;;;;;;;7.50;5.60;;;;;;;13.72;66.69;99579.94;214633;1276;140508;-68
2022/06/22 22:23:15;;;;;;;5.50;5.10;;;;;;;13.62;66.81;99582.97;215375;1276;140661;-64
2022/06/22 22:28:25;;;;;;;5.20;4.70;;;;;;;13.47;67.08;99585.27;215743;1275;140730;-66
2022/06/22 22:33:32;;;;;;;4.80;4.40;;;;;;;13.32;67.34;99586.61;215732;1276;141740;-67
2022/06/22 22:38:42;;;;;;;6.60;5.80;;;;;;;13.22;67.76;99588.51;215897;1276;139775;-66
2022/06/22 22:44:04;;;;;;;8.30;5.40;;;;;;;13.26;67.82;99590.63;215770;1276;140423;-67
2022/06/22 22:49:21;;;;;;;7.60;5.90;;;;;;;13.27;67.74;99590.86;214915;1276;141761;-68
2022/06/22 22:54:36;;;;;;;5.60;5.10;;;;;;;13.20;67.71;99592.23;214482;1276;139809;-65
2022/06/22 22:59:48;;;;;;;12.70;5.70;;;;;;;13.23;68.12;99595.68;213615;1276;140074;-65
2022/06/22 23:04:53;;;;;;;6.30;5.30;;;;;;;13.23;68.21;99596.70;214118;1276;141159;-65
2022/06/22 23:10:02;;;;;;;9.50;5.50;;;;;;;13.07;67.95;99596.13;214459;1276;140608;-65
2022/06/22 23:15:06;;;;;;;6.00;5.50;;;;;;;12.91;68.35;99600.09;213855;1276;141382;-64
2022/06/22 23:20:13;;;;;;;6.90;6.30;;;;;;;12.75;68.37;99604.05;213411;1276;142317;-65
2022/06/22 23:25:21;;;;;;;7.00;5.30;;;;;;;12.64;68.61;99603.13;214127;1276;141498;-65
2022/06/22 23:30:27;;;;;;;5.80;4.90;;;;;;;12.62;68.85;99605.14;214766;1277;140914;-64
2022/06/22 23:35:41;;;;;;;7.30;5.80;;;;;;;12.62;69.05;99605.56;214039;1276;140679;-64
2022/06/22 23:40:57;;;;;;;6.40;5.70;;;;;;;12.56;69.24;99608.81;212846;1276;141705;-66
2022/06/22 23:46:06;;;;;;;7.20;5.60;;;;;;;12.52;69.47;99611.56;213453;1276;141758;-67
2022/06/22 23:51:35;;;;;;;12.30;6.40;;;;;;;12.43;69.30;99608.37;213650;1277;150931;-66
2022/06/22 23:56:47;;;;;;;8.10;5.80;;;;;;;12.31;69.60;99606.17;214097;1276;142766;-66
